createdAt,value
2023-08-29T00:01:09.642Z,76557.13
2023-08-29T00:03:36.530Z,76549.13
2023-08-29T00:06:04.660Z,76555.13
2023-08-29T00:08:33.571Z,76555.13
2023-08-29T00:11:01.252Z,76557.13
2023-08-29T00:13:27.901Z,76563.13
2023-08-29T00:15:54.631Z,76573.13
2023-08-29T00:18:21.339Z,76577.13
2023-08-29T00:20:48.209Z,76579.13
2023-08-29T00:23:14.921Z,76581.09
2023-08-29T00:25:41.616Z,76577.13
2023-08-29T00:28:08.517Z,76575.13
2023-08-29T00:30:42.255Z,76577.13
2023-08-29T00:33:11.121Z,76577.13
2023-08-29T00:35:37.892Z,76583.09
2023-08-29T00:38:05.308Z,76583.09
2023-08-29T00:40:32.972Z,76583.09
2023-08-29T00:43:00.674Z,76581.09
2023-08-29T00:45:30.988Z,76579.13
2023-08-29T00:47:57.946Z,76575.13
2023-08-29T00:50:27.051Z,76567.13
2023-08-29T00:52:58.295Z,76569.13
2023-08-29T00:55:29.311Z,76567.13
2023-08-29T00:58:01.344Z,76569.13
2023-08-29T01:00:30.022Z,76563.13
2023-08-29T01:02:57.276Z,76563.13
2023-08-29T01:05:24.235Z,76557.13
2023-08-29T01:08:02.283Z,76549.13
2023-08-29T01:10:45.409Z,76559.13
2023-08-29T01:13:36.482Z,76561.13
2023-08-29T01:16:06.671Z,76563.13
2023-08-29T01:18:35.403Z,76559.13
2023-08-29T01:21:31.281Z,76557.13
2023-08-29T01:24:17.330Z,76549.13
2023-08-29T01:26:45.523Z,76541.13
2023-08-29T01:29:13.422Z,76541.13
2023-08-29T01:31:41.010Z,76551.13
2023-08-29T01:34:09.470Z,76561.13
2023-08-29T01:36:44.063Z,76567.13
2023-08-29T01:39:11.323Z,76567.13
2023-08-29T01:41:37.945Z,76565.13
2023-08-29T01:44:06.093Z,76563.13
2023-08-29T01:46:32.892Z,76551.13
2023-08-29T01:49:02.391Z,76549.13
2023-08-29T01:51:29.762Z,76543.13
2023-08-29T01:53:57.783Z,76543.13
2023-08-29T01:56:29.084Z,76551.13
2023-08-29T01:58:57.288Z,76551.13
2023-08-29T02:01:24.640Z,76535.16
2023-08-29T02:03:52.646Z,76523.16
2023-08-29T02:06:19.634Z,76523.16
2023-08-29T02:08:46.326Z,76519.16
2023-08-29T02:11:13.027Z,76521.16
2023-08-29T02:13:39.780Z,76527.16
2023-08-29T02:16:06.476Z,76529.16
2023-08-29T02:18:33.113Z,76525.16
2023-08-29T02:20:59.785Z,76533.16
2023-08-29T02:23:26.510Z,76535.16
2023-08-29T02:26:06.974Z,76531.16
2023-08-29T02:28:38.254Z,76537.16
2023-08-29T02:31:09.827Z,76539.13
2023-08-29T02:33:39.573Z,76529.16
2023-08-29T02:36:07.424Z,76539.13
2023-08-29T02:38:35.012Z,76539.13
2023-08-29T02:41:01.786Z,76527.16
2023-08-29T02:43:29.348Z,76523.16
2023-08-29T02:45:56.237Z,76521.16
2023-08-29T02:48:23.302Z,76513.16
2023-08-29T02:50:50.057Z,76509.16
2023-08-29T02:53:18.357Z,76507.16
2023-08-29T02:55:45.431Z,76503.16
2023-08-29T02:58:12.186Z,76501.16
2023-08-29T03:00:38.969Z,76499.16
2023-08-29T03:03:06.101Z,76501.16
2023-08-29T03:05:33.132Z,76485.19
2023-08-29T03:08:01.174Z,76489.19
2023-08-29T03:10:27.946Z,76485.19
2023-08-29T03:12:54.615Z,76477.19
2023-08-29T03:15:21.274Z,76477.19
2023-08-29T03:17:48.569Z,76479.19
2023-08-29T03:20:16.870Z,76475.19
2023-08-29T03:22:43.583Z,76479.19
2023-08-29T03:25:10.678Z,76471.19
2023-08-29T03:27:37.327Z,76481.19
2023-08-29T03:30:04.344Z,76475.19
2023-08-29T03:32:31.100Z,76475.19
2023-08-29T03:34:59.648Z,76473.19
2023-08-29T03:37:26.391Z,76465.19
2023-08-29T03:39:55.941Z,76471.19
2023-08-29T03:42:22.724Z,76469.19
2023-08-29T03:44:49.417Z,76463.19
2023-08-29T03:47:16.117Z,76455.22
2023-08-29T03:49:42.737Z,76451.22
2023-08-29T03:52:09.378Z,76427.22
2023-08-29T03:54:36.066Z,76423.22
2023-08-29T03:57:02.735Z,76437.22
2023-08-29T03:59:29.355Z,76443.22
2023-08-29T04:01:56.011Z,76443.22
2023-08-29T04:04:23.831Z,76455.22
2023-08-29T04:06:50.699Z,76453.22
2023-08-29T04:09:17.330Z,76447.22
2023-08-29T04:11:44.022Z,76459.19
2023-08-29T04:14:10.668Z,76461.19
2023-08-29T04:16:37.320Z,76467.19
2023-08-29T04:19:04.242Z,76463.19
2023-08-29T04:21:30.948Z,76465.19
2023-08-29T04:23:57.569Z,76461.19
2023-08-29T04:26:24.207Z,76463.19
2023-08-29T04:28:50.834Z,76459.19
2023-08-29T04:31:20.984Z,76467.19
2023-08-29T04:33:48.111Z,76473.19
2023-08-29T04:36:18.311Z,76483.19
2023-08-29T04:38:48.013Z,76475.19
2023-08-29T04:41:15.278Z,76481.19
2023-08-29T04:43:41.985Z,76473.19
2023-08-29T04:46:08.782Z,76483.19
2023-08-29T04:48:36.750Z,76485.19
2023-08-29T04:51:05.564Z,76475.19
2023-08-29T04:53:33.233Z,76485.19
2023-08-29T04:56:01.574Z,76471.19
2023-08-29T04:58:29.927Z,76475.19
2023-08-29T05:00:57.565Z,76479.19
2023-08-29T05:03:24.639Z,76479.19
2023-08-29T05:05:53.120Z,76479.19
2023-08-29T05:08:19.900Z,76465.19
2023-08-29T05:10:46.925Z,76459.19
2023-08-29T05:13:13.604Z,76457.22
2023-08-29T05:15:42.118Z,76461.19
2023-08-29T05:18:10.475Z,76451.22
2023-08-29T05:20:38.177Z,76437.22
2023-08-29T05:23:05.300Z,76425.22
2023-08-29T05:25:32.471Z,76427.22
2023-08-29T05:27:59.229Z,76425.22
2023-08-29T05:30:25.859Z,76427.22
2023-08-29T05:32:52.610Z,76423.22
2023-08-29T05:35:19.291Z,76419.25
2023-08-29T05:37:45.940Z,76415.25
2023-08-29T05:40:12.623Z,76407.25
2023-08-29T05:42:39.346Z,76417.25
2023-08-29T05:45:06.789Z,76407.25
2023-08-29T05:47:33.519Z,76411.25
2023-08-29T05:50:00.546Z,76417.25
2023-08-29T05:52:27.195Z,76411.25
2023-08-29T05:54:53.964Z,76427.22
2023-08-29T05:57:21.400Z,76425.22
2023-08-29T05:59:48.082Z,76439.22
2023-08-29T06:02:14.715Z,76441.22
2023-08-29T06:04:41.439Z,76451.22
2023-08-29T06:07:08.570Z,76433.22
2023-08-29T06:09:35.236Z,76433.22
2023-08-29T06:12:01.941Z,76435.22
2023-08-29T06:14:28.587Z,76427.22
2023-08-29T06:16:56.147Z,76429.22
2023-08-29T06:19:22.904Z,76409.25
2023-08-29T06:21:49.763Z,76407.25
2023-08-29T06:24:16.476Z,76391.25
2023-08-29T06:26:43.123Z,76373.28
2023-08-29T06:29:09.837Z,76377.28
2023-08-29T06:31:36.470Z,76367.28
2023-08-29T06:34:03.127Z,76369.28
2023-08-29T06:36:29.848Z,76371.28
2023-08-29T06:38:56.485Z,76367.28
2023-08-29T06:41:23.241Z,76361.28
2023-08-29T06:43:49.883Z,76367.28
2023-08-29T06:46:17.137Z,76373.28
2023-08-29T06:48:43.838Z,76389.25
2023-08-29T06:51:10.810Z,76393.25
2023-08-29T06:53:37.570Z,76405.25
2023-08-29T06:56:05.323Z,76413.25
2023-08-29T06:58:32.058Z,76409.25
2023-08-29T07:00:58.753Z,76419.25
2023-08-29T07:03:25.513Z,76411.25
2023-08-29T07:05:52.280Z,76417.25
2023-08-29T07:08:18.935Z,76433.22
2023-08-29T07:10:45.583Z,76441.22
2023-08-29T07:13:12.289Z,76457.22
2023-08-29T07:15:38.927Z,76461.19
2023-08-29T07:18:07.274Z,76463.19
2023-08-29T07:20:35.005Z,76447.22
2023-08-29T07:23:02.136Z,76447.22
2023-08-29T07:25:47.473Z,76441.22
2023-08-29T07:28:14.806Z,76445.22
2023-08-29T07:30:49.187Z,76447.22
2023-08-29T07:33:16.351Z,76435.22
2023-08-29T07:35:44.168Z,76417.25
2023-08-29T07:38:11.065Z,76395.25
2023-08-29T07:40:37.889Z,76387.25
2023-08-29T07:43:06.774Z,76383.25
2023-08-29T07:45:34.487Z,76369.28
2023-08-29T07:48:01.795Z,76383.25
2023-08-29T07:50:29.547Z,76367.28
2023-08-29T07:52:56.226Z,76355.28
2023-08-29T07:55:23.262Z,76361.28
2023-08-29T07:57:50.137Z,76363.28
2023-08-29T08:00:18.080Z,76369.28
2023-08-29T08:02:45.549Z,76373.28
2023-08-29T08:05:14.748Z,76377.28
2023-08-29T08:07:44.063Z,76381.28
2023-08-29T08:10:15.705Z,76415.25
2023-08-29T08:12:42.988Z,76413.25
2023-08-29T08:15:10.694Z,76423.22
2023-08-29T08:17:38.042Z,76435.22
2023-08-29T08:20:09.235Z,76421.22
2023-08-29T08:22:39.576Z,76415.25
2023-08-29T08:25:07.436Z,76407.25
2023-08-29T08:27:34.184Z,76411.25
2023-08-29T08:30:01.165Z,76405.25
2023-08-29T08:32:28.409Z,76415.25
2023-08-29T08:34:56.821Z,76435.22
2023-08-29T08:37:23.510Z,76421.22
2023-08-29T08:39:50.192Z,76435.22
2023-08-29T08:42:17.393Z,76437.22
2023-08-29T08:44:44.394Z,76445.22
2023-08-29T08:47:12.215Z,76419.25
2023-08-29T08:49:39.530Z,76395.25
2023-08-29T08:52:07.304Z,76415.25
2023-08-29T08:54:34.138Z,76399.25
2023-08-29T08:57:01.071Z,76385.25
2023-08-29T08:59:27.906Z,76373.28
2023-08-29T09:01:58.038Z,76353.28
2023-08-29T09:04:25.806Z,76327.31
2023-08-29T09:06:52.546Z,76307.31
2023-08-29T09:09:24.408Z,76279.34
2023-08-29T09:11:55.434Z,76275.34
2023-08-29T09:14:24.317Z,76247.38
2023-08-29T09:16:58.707Z,76219.41
2023-08-29T09:19:26.524Z,76227.41
2023-08-29T09:21:53.296Z,76185.44
2023-08-29T09:24:38.147Z,76187.44
2023-08-29T09:27:10.951Z,76169.44
2023-08-29T09:29:37.958Z,76155.47
2023-08-29T09:32:17.057Z,76147.47
2023-08-29T09:34:43.831Z,76127.47
2023-08-29T09:37:13.139Z,76127.47
2023-08-29T09:39:40.010Z,76185.44
2023-08-29T09:42:08.577Z,76217.41
2023-08-29T09:44:38.042Z,76239.38
2023-08-29T09:47:06.367Z,76233.38
2023-08-29T09:49:44.079Z,76231.38
2023-08-29T09:52:11.651Z,76263.38
2023-08-29T09:54:46.194Z,76259.38
2023-08-29T09:57:15.946Z,76251.38
2023-08-29T09:59:44.460Z,76263.38
2023-08-29T10:02:13.145Z,76253.38
2023-08-29T10:04:45.917Z,76233.38
2023-08-29T10:07:22.062Z,76231.38
2023-08-29T10:09:49.081Z,76247.38
2023-08-29T10:12:16.247Z,76231.38
2023-08-29T10:14:44.174Z,76249.38
2023-08-29T10:17:25.392Z,76225.41
2023-08-29T10:19:58.543Z,76219.41
2023-08-29T10:22:30.083Z,76209.41
2023-08-29T10:24:59.396Z,76207.41
2023-08-29T10:27:26.027Z,76221.41
2023-08-29T10:29:52.780Z,76211.41
2023-08-29T10:32:21.173Z,76211.41
2023-08-29T10:34:47.962Z,76193.41
2023-08-29T10:37:21.827Z,76203.41
2023-08-29T10:39:52.239Z,76203.41
2023-08-29T10:42:19.128Z,76213.41
2023-08-29T10:44:47.956Z,76201.41
2023-08-29T10:47:17.821Z,76203.41
2023-08-29T10:49:45.121Z,76185.44
2023-08-29T10:52:12.434Z,76187.44
2023-08-29T10:54:39.091Z,76205.41
2023-08-29T10:57:32.270Z,76209.41
2023-08-29T10:59:58.978Z,76191.44
2023-08-29T11:02:27.225Z,76181.44
2023-08-29T11:05:11.486Z,76159.44
2023-08-29T11:07:39.522Z,76149.47
2023-08-29T11:10:17.746Z,76157.44
2023-08-29T11:13:07.866Z,76149.47
2023-08-29T11:15:52.737Z,76139.47
2023-08-29T11:18:22.923Z,76137.47
2023-08-29T11:20:49.563Z,76127.47
2023-08-29T11:23:16.302Z,76097.50
2023-08-29T11:25:43.471Z,76091.50
2023-08-29T11:28:10.209Z,76071.53
2023-08-29T11:30:44.476Z,76065.53
2023-08-29T11:33:12.182Z,76037.56
2023-08-29T11:35:39.351Z,76045.56
2023-08-29T11:38:07.505Z,76009.59
2023-08-29T11:40:45.107Z,75997.59
2023-08-29T11:44:17.096Z,75971.63
2023-08-29T11:46:10.104Z,75949.63
2023-08-29T11:48:37.194Z,75959.63
2023-08-29T11:51:08.576Z,75939.66
2023-08-29T11:53:37.471Z,75923.66
2023-08-29T11:56:05.742Z,75911.69
2023-08-29T11:58:34.683Z,75931.66
2023-08-29T12:01:06.135Z,75959.63
2023-08-29T12:03:37.392Z,75977.63
2023-08-29T12:06:10.851Z,76005.59
2023-08-29T12:08:47.409Z,76019.56
2023-08-29T12:11:16.796Z,76029.56
2023-08-29T12:14:01.661Z,76043.56
2023-08-29T12:16:29.751Z,76079.53
2023-08-29T12:19:07.335Z,76097.50
2023-08-29T12:21:34.366Z,76089.50
2023-08-29T12:24:11.626Z,76093.50
2023-08-29T12:26:38.462Z,76103.50
2023-08-29T12:29:05.189Z,76105.50
2023-08-29T12:31:31.866Z,76097.50
2023-08-29T12:33:58.535Z,76119.50
2023-08-29T12:36:25.170Z,76111.50
2023-08-29T12:38:51.857Z,76109.50
2023-08-29T12:41:19.067Z,76109.50
2023-08-29T12:43:45.752Z,76087.50
2023-08-29T12:46:12.420Z,76101.50
2023-08-29T12:48:39.100Z,76099.50
2023-08-29T12:51:06.619Z,76099.50
2023-08-29T12:53:33.348Z,76085.53
2023-08-29T12:56:00.288Z,76083.53
2023-08-29T12:58:26.973Z,76075.53
2023-08-29T13:00:53.604Z,76067.53
2023-08-29T13:03:20.366Z,76071.53
2023-08-29T13:05:47.335Z,76067.53
2023-08-29T13:08:16.707Z,76071.53
2023-08-29T13:10:44.007Z,76081.53
2023-08-29T13:13:10.674Z,76081.53
2023-08-29T13:15:49.766Z,76081.53
2023-08-29T13:18:17.447Z,76075.53
2023-08-29T13:20:44.421Z,76051.53
2023-08-29T13:23:11.356Z,76055.53
2023-08-29T13:25:38.116Z,76041.56
2023-08-29T13:28:05.460Z,76045.56
2023-08-29T13:30:32.602Z,76035.56
2023-08-29T13:32:59.320Z,76065.53
2023-08-29T13:35:26.078Z,76071.53
2023-08-29T13:37:53.305Z,76061.53
2023-08-29T13:40:21.825Z,76057.53
2023-08-29T13:42:50.477Z,76073.53
2023-08-29T13:45:17.613Z,76083.53
2023-08-29T13:47:45.874Z,76093.50
2023-08-29T13:50:12.829Z,76123.47
2023-08-29T13:52:39.505Z,76159.44
2023-08-29T13:55:06.660Z,76183.44
2023-08-29T13:57:33.479Z,76207.41
2023-08-29T14:00:00.124Z,76205.41
2023-08-29T14:02:26.813Z,76231.38
2023-08-29T14:04:53.531Z,76249.38
2023-08-29T14:07:20.232Z,76255.38
2023-08-29T14:09:46.966Z,76281.34
2023-08-29T14:12:13.666Z,76301.34
2023-08-29T14:14:40.507Z,76305.31
2023-08-29T14:17:07.287Z,76301.34
2023-08-29T14:19:33.965Z,76295.34
2023-08-29T14:22:02.379Z,76303.34
2023-08-29T14:24:29.386Z,76319.31
2023-08-29T14:26:56.018Z,76327.31
2023-08-29T14:29:22.730Z,76325.31
2023-08-29T14:31:49.426Z,76341.31
2023-08-29T14:34:16.140Z,76341.31
2023-08-29T14:36:42.816Z,76345.28
2023-08-29T14:39:09.456Z,76337.31
2023-08-29T14:41:36.390Z,76339.31
2023-08-29T14:44:03.059Z,76347.28
2023-08-29T14:46:29.784Z,76331.31
2023-08-29T14:48:57.803Z,76319.31
2023-08-29T14:51:24.460Z,76341.31
2023-08-29T14:53:51.554Z,76337.31
2023-08-29T14:56:18.342Z,76331.31
2023-08-29T14:58:45.990Z,76335.31
2023-08-29T15:01:12.668Z,76323.31
2023-08-29T15:03:40.608Z,76337.31
2023-08-29T15:06:09.335Z,76351.28
2023-08-29T15:08:36.582Z,76357.28
2023-08-29T15:11:03.294Z,76367.28
2023-08-29T15:13:30.034Z,76377.28
2023-08-29T15:16:01.602Z,76391.25
2023-08-29T15:18:28.359Z,76395.25
2023-08-29T15:20:55.035Z,76399.25
2023-08-29T15:23:22.072Z,76413.25
2023-08-29T15:25:48.725Z,76425.22
2023-08-29T15:28:15.378Z,76421.22
2023-08-29T15:30:42.088Z,76413.25
2023-08-29T15:33:08.780Z,76415.25
2023-08-29T15:35:35.433Z,76419.25
2023-08-29T15:38:02.134Z,76413.25
2023-08-29T15:40:28.789Z,76411.25
2023-08-29T15:42:55.619Z,76403.25
2023-08-29T15:45:22.308Z,76403.25
2023-08-29T15:47:50.163Z,76403.25
2023-08-29T15:50:16.990Z,76391.25
2023-08-29T15:52:43.686Z,76393.25
2023-08-29T15:55:10.715Z,76391.25
2023-08-29T15:57:37.420Z,76401.25
2023-08-29T16:00:10.907Z,76401.25
2023-08-29T16:02:37.778Z,76411.25
2023-08-29T16:05:05.341Z,76397.25
2023-08-29T16:07:32.001Z,76399.25
2023-08-29T16:09:58.623Z,76411.25
2023-08-29T16:12:25.306Z,76415.25
2023-08-29T16:14:51.991Z,76423.22
2023-08-29T16:17:18.645Z,76427.22
2023-08-29T16:19:45.314Z,76427.22
2023-08-29T16:22:11.992Z,76443.22
2023-08-29T16:24:38.668Z,76441.22
2023-08-29T16:27:05.375Z,76443.22
2023-08-29T16:29:32.044Z,76449.22
2023-08-29T16:31:58.702Z,76451.22
2023-08-29T16:34:25.373Z,76447.22
2023-08-29T16:36:52.064Z,76447.22
2023-08-29T16:39:18.699Z,76467.19
2023-08-29T16:41:46.550Z,76463.19
2023-08-29T16:44:13.310Z,76483.19
2023-08-29T16:46:40.109Z,76489.19
2023-08-29T16:49:06.789Z,76491.19
2023-08-29T16:51:33.935Z,76493.19
2023-08-29T16:54:01.140Z,76501.16
2023-08-29T16:56:27.876Z,76509.16
2023-08-29T16:58:54.554Z,76479.19
2023-08-29T17:01:21.232Z,76487.19
2023-08-29T17:03:47.920Z,76481.19
2023-08-29T17:06:14.959Z,76485.19
2023-08-29T17:08:41.655Z,76489.19
2023-08-29T17:11:08.302Z,76483.19
2023-08-29T17:13:35.903Z,76491.19
2023-08-29T17:16:05.399Z,76487.19
2023-08-29T17:18:32.269Z,76493.19
2023-08-29T17:20:59.178Z,76493.19
2023-08-29T17:23:25.853Z,76493.19
2023-08-29T17:25:52.550Z,76509.16
2023-08-29T17:28:20.403Z,76503.16
2023-08-29T17:30:47.105Z,76505.16
2023-08-29T17:33:13.751Z,76503.16
2023-08-29T17:35:40.448Z,76517.16
2023-08-29T17:38:07.834Z,76517.16
2023-08-29T17:40:34.715Z,76519.16
2023-08-29T17:43:03.829Z,76529.16
2023-08-29T17:45:31.944Z,76535.16
2023-08-29T17:47:58.626Z,76541.13
2023-08-29T17:50:25.342Z,76547.13
2023-08-29T17:52:52.020Z,76547.13
2023-08-29T17:55:18.755Z,76549.13
2023-08-29T17:57:46.717Z,76545.13
2023-08-29T18:00:13.772Z,76545.13
2023-08-29T18:02:40.668Z,76549.13
2023-08-29T18:05:07.618Z,76545.13
2023-08-29T18:07:34.368Z,76543.13
2023-08-29T18:10:14.347Z,76547.13
2023-08-29T18:12:42.037Z,76563.13
2023-08-29T18:15:10.280Z,76569.13
2023-08-29T18:17:37.633Z,76553.13
2023-08-29T18:20:04.851Z,76549.13
2023-08-29T18:22:31.682Z,76555.13
2023-08-29T18:24:58.451Z,76557.13
2023-08-29T18:27:27.133Z,76565.13
2023-08-29T18:29:53.906Z,76567.13
2023-08-29T18:32:20.565Z,76587.09
2023-08-29T18:34:47.308Z,76587.09
2023-08-29T18:37:14.025Z,76573.13
2023-08-29T18:39:40.744Z,76581.09
2023-08-29T18:42:07.814Z,76575.13
2023-08-29T18:44:37.550Z,76591.09
2023-08-29T18:47:05.166Z,76591.09
2023-08-29T18:49:33.473Z,76595.09
2023-08-29T18:52:00.515Z,76609.09
2023-08-29T18:54:27.240Z,76599.09
2023-08-29T18:56:53.947Z,76595.09
2023-08-29T18:59:20.640Z,76603.09
2023-08-29T19:01:47.286Z,76605.09
2023-08-29T19:04:14.418Z,76609.09
2023-08-29T19:06:41.194Z,76607.09
2023-08-29T19:09:07.856Z,76599.09
2023-08-29T19:11:35.078Z,76605.09
2023-08-29T19:14:01.974Z,76615.09
2023-08-29T19:16:28.615Z,76611.09
2023-08-29T19:18:55.377Z,76603.09
2023-08-29T19:21:24.900Z,76601.09
2023-08-29T19:23:52.145Z,76597.09
2023-08-29T19:26:20.083Z,76607.09
2023-08-29T19:28:46.870Z,76595.09
2023-08-29T19:31:13.672Z,76601.09
2023-08-29T19:33:40.376Z,76599.09
2023-08-29T19:36:15.735Z,76595.09
2023-08-29T19:38:43.055Z,76591.09
2023-08-29T19:41:11.214Z,76587.09
2023-08-29T19:43:38.243Z,76591.09
2023-08-29T19:46:05.131Z,76603.09
2023-08-29T19:48:32.425Z,76593.09
2023-08-29T19:50:59.273Z,76603.09
2023-08-29T19:53:26.152Z,76595.09
2023-08-29T19:55:56.056Z,76597.09
2023-08-29T19:58:23.201Z,76603.09
2023-08-29T20:00:51.172Z,76615.09
2023-08-29T20:03:18.760Z,76609.09
2023-08-29T20:05:46.021Z,76609.09
2023-08-29T20:08:15.735Z,76619.09
2023-08-29T20:10:44.561Z,76619.09
2023-08-29T20:13:11.511Z,76619.09
2023-08-29T20:15:43.142Z,76611.09
2023-08-29T20:18:13.368Z,76621.09
2023-08-29T20:20:41.638Z,76621.09
2023-08-29T20:23:12.844Z,76619.09
2023-08-29T20:25:40.137Z,76601.09
2023-08-29T20:28:07.743Z,76613.09
2023-08-29T20:30:38.163Z,76607.09
2023-08-29T20:33:06.775Z,76605.09
2023-08-29T20:35:35.382Z,76611.09
2023-08-29T20:38:02.207Z,76613.09
2023-08-29T20:40:28.864Z,76621.09
2023-08-29T20:42:55.586Z,76611.09
2023-08-29T20:45:24.323Z,76615.09
2023-08-29T20:47:51.535Z,76615.09
2023-08-29T20:50:18.428Z,76603.09
2023-08-29T20:52:45.264Z,76599.09
2023-08-29T20:55:12.694Z,76593.09
2023-08-29T20:57:39.459Z,76593.09
2023-08-29T21:00:06.600Z,76607.09
2023-08-29T21:02:33.422Z,76611.09
2023-08-29T21:05:00.260Z,76611.09
2023-08-29T21:07:27.579Z,76605.09
2023-08-29T21:09:54.201Z,76611.09
2023-08-29T21:12:22.652Z,76597.09
2023-08-29T21:14:49.667Z,76593.09
2023-08-29T21:17:17.966Z,76599.09
2023-08-29T21:19:45.168Z,76599.09
2023-08-29T21:22:11.857Z,76589.09
2023-08-29T21:24:38.532Z,76587.09
2023-08-29T21:27:05.528Z,76583.09
2023-08-29T21:29:32.261Z,76583.09
2023-08-29T21:31:58.963Z,76577.13
2023-08-29T21:34:25.911Z,76561.13
2023-08-29T21:36:52.555Z,76573.13
2023-08-29T21:39:19.262Z,76569.13
2023-08-29T21:41:46.013Z,76575.13
2023-08-29T21:44:13.132Z,76573.13
2023-08-29T21:46:39.855Z,76577.13
2023-08-29T21:49:06.495Z,76573.13
2023-08-29T21:51:33.237Z,76579.13
2023-08-29T21:53:59.921Z,76567.13
2023-08-29T21:56:26.691Z,76583.09
2023-08-29T21:58:53.629Z,76589.09
2023-08-29T22:01:21.462Z,76591.09
2023-08-29T22:03:50.113Z,76587.09
2023-08-29T22:06:16.823Z,76579.13
2023-08-29T22:08:43.564Z,76583.09
2023-08-29T22:11:10.324Z,76575.13
2023-08-29T22:13:36.998Z,76567.13
2023-08-29T22:16:05.176Z,76567.13
2023-08-29T22:18:32.408Z,76567.13
2023-08-29T22:20:59.865Z,76575.13
2023-08-29T22:23:26.494Z,76561.13
2023-08-29T22:25:53.161Z,76561.13
2023-08-29T22:28:19.840Z,76571.13
2023-08-29T22:30:47.357Z,76573.13
2023-08-29T22:33:14.046Z,76575.13
2023-08-29T22:35:43.006Z,76579.13
2023-08-29T22:38:10.461Z,76581.09
2023-08-29T22:40:37.577Z,76591.09
2023-08-29T22:43:04.462Z,76601.09
2023-08-29T22:45:31.165Z,76599.09
2023-08-29T22:47:58.079Z,76595.09
2023-08-29T22:50:25.020Z,76595.09
2023-08-29T22:52:51.776Z,76591.09
2023-08-29T22:55:18.406Z,76589.09
2023-08-29T22:57:45.102Z,76591.09
2023-08-29T23:00:14.287Z,76583.09
2023-08-29T23:02:41.306Z,76579.13
2023-08-29T23:05:08.915Z,76577.13
2023-08-29T23:07:35.675Z,76591.09
2023-08-29T23:10:02.328Z,76597.09
2023-08-29T23:12:29.021Z,76595.09
2023-08-29T23:14:55.767Z,76599.09
2023-08-29T23:17:22.664Z,76595.09
2023-08-29T23:19:49.335Z,76589.09
2023-08-29T23:22:15.982Z,76587.09
2023-08-29T23:24:42.655Z,76589.09
2023-08-29T23:27:09.291Z,76589.09
2023-08-29T23:29:38.968Z,76591.09
2023-08-29T23:32:06.382Z,76583.09
2023-08-29T23:34:33.043Z,76583.09
2023-08-29T23:36:59.813Z,76577.13
2023-08-29T23:39:26.489Z,76587.09
2023-08-29T23:41:53.406Z,76583.09
2023-08-29T23:44:20.094Z,76587.09
2023-08-29T23:46:46.842Z,76587.09
2023-08-29T23:49:13.843Z,76583.09
2023-08-29T23:51:40.458Z,76589.09
2023-08-29T23:54:07.328Z,76581.09
2023-08-29T23:56:34.008Z,76593.09
2023-08-29T23:59:00.649Z,76589.09
